CheckWX is a tool to help pilots better visualize weather data.  It is not intended as a substitute for an official pre-flight weather briefing.

01:50:26 UTC

1A5 METAR
Macon County Airport
Franklin, North Carolina, USA
Current

15 mins ago

K1A5 200135Z AUTO 00000KT 5SM BR CLR 20/19 A3021 RMK AO2 T01970191
Observed
Aug-20 @ 01:35 UTC
Visibility
5 SM
Flight Rules
MVFR
Conditions
Mist
Cloud Levels
  • Clear skies
Temperature
20°C / 68°F
Dewpoint
19°C / 66°F
Humidity
94%
Altimeter
30.21" Hg
Pressure
1023.02 hPa
Previous

35 mins ago

K1A5 200115Z AUTO 00000KT 7SM CLR 20/19 A3020 RMK AO2 T02000192
Observed
Aug-20 @ 01:15 UTC
Visibility
7 SM
Flight Rules
VFR
Cloud Levels
  • Clear skies
Temperature
20°C / 68°F
Dewpoint
19°C / 66°F
Humidity
94%
Altimeter
30.2" Hg
Pressure
1022.72 hPa
Previous

55 mins ago

K1A5 200055Z AUTO 00000KT 5SM BR CLR 20/20 A3018 RMK AO2 T02030197
Observed
Aug-20 @ 00:55 UTC
Visibility
5 SM
Flight Rules
MVFR
Conditions
Mist
Cloud Levels
  • Clear skies
Temperature
20°C / 68°F
Dewpoint
20°C / 68°F
Humidity
100%
Altimeter
30.18" Hg
Pressure
1022.02 hPa